createdAt,value
2022-12-03T00:00:33.990Z,101851.25
2022-12-03T00:03:08.181Z,101867.53
2022-12-03T00:05:48.865Z,101882.97
2022-12-03T00:08:22.099Z,101883.16
2022-12-03T00:10:54.895Z,101889.19
2022-12-03T00:13:28.003Z,101858.06
2022-12-03T00:16:00.812Z,101881.25
2022-12-03T00:18:34.978Z,101875.84
2022-12-03T00:21:08.182Z,101875.19
2022-12-03T00:23:42.405Z,101881.47
2022-12-03T00:26:15.551Z,101852.16
2022-12-03T00:28:48.662Z,101882.13
2022-12-03T00:31:23.297Z,101876.97
2022-12-03T00:33:57.561Z,101835.56
2022-12-03T00:36:30.362Z,101879.53
2022-12-03T00:39:03.189Z,101840.72
2022-12-03T00:41:36.152Z,101876.84
2022-12-03T00:44:08.932Z,101876.91
2022-12-03T00:46:41.820Z,101874.28
2022-12-03T00:49:15.990Z,101876.06
2022-12-03T00:51:48.866Z,101882.19
2022-12-03T00:54:24.476Z,101882.28
2022-12-03T00:56:59.973Z,101877.84
2022-12-03T00:59:32.813Z,101877.88
2022-12-03T01:02:05.666Z,101870.94
2022-12-03T01:04:39.962Z,101880.19
2022-12-03T01:07:12.834Z,101844.84
2022-12-03T01:09:45.810Z,101873.59
2022-12-03T01:12:18.623Z,101878.75
2022-12-03T01:14:51.666Z,101883.91
2022-12-03T01:17:24.688Z,101884.88
2022-12-03T01:19:59.100Z,101864.19
2022-12-03T01:22:31.957Z,101884.94
2022-12-03T01:25:05.330Z,101855.59
2022-12-03T01:27:38.141Z,101870.22
2022-12-03T01:30:12.980Z,101890.19
2022-12-03T01:32:44.821Z,101881.38
2022-12-03T01:35:20.151Z,101883.97
2022-12-03T01:37:53.001Z,101882.97
2022-12-03T01:40:25.985Z,101851.84
2022-12-03T01:42:58.829Z,101849.53
2022-12-03T01:45:31.820Z,101831.44
2022-12-03T01:48:04.835Z,101872.78
2022-12-03T01:50:39.087Z,101882.47
2022-12-03T01:53:16.678Z,101873.66
2022-12-03T01:55:49.486Z,101854.63
2022-12-03T01:58:27.640Z,101872.69
2022-12-03T02:01:05.411Z,101841.84
2022-12-03T02:03:38.562Z,101872.03
2022-12-03T02:06:16.879Z,101883.16
2022-12-03T02:08:50.775Z,101877.19
2022-12-03T02:11:28.865Z,101848.72
2022-12-03T02:14:04.252Z,101864.25
2022-12-03T02:16:38.747Z,101847.13
2022-12-03T02:19:19.076Z,101849.78
2022-12-03T02:22:00.834Z,101839.44
2022-12-03T02:24:42.947Z,101874.63
2022-12-03T02:27:17.092Z,101872.94
2022-12-03T02:29:49.977Z,101876.28
2022-12-03T02:32:23.830Z,101872.03
2022-12-03T02:34:56.768Z,101872.03
2022-12-03T02:37:33.351Z,101844.25
2022-12-03T02:40:12.223Z,101863.22
2022-12-03T02:42:45.897Z,101865.03
2022-12-03T02:45:22.151Z,101866.81
2022-12-03T02:47:58.314Z,101866.59
2022-12-03T02:50:34.265Z,101862.47
2022-12-03T02:53:10.988Z,101850.50
2022-12-03T02:55:43.834Z,101840.31
2022-12-03T02:58:19.122Z,101860.81
2022-12-03T03:00:54.770Z,101774.38
2022-12-03T03:03:29.730Z,101825.31
2022-12-03T03:06:03.279Z,101856.63
2022-12-03T03:08:37.818Z,101855.47
2022-12-03T03:11:10.853Z,101843.41
2022-12-03T03:13:45.406Z,101859.97
2022-12-03T03:16:18.238Z,101822.09
2022-12-03T03:18:51.156Z,101855.59
2022-12-03T03:21:24.064Z,101854.06
2022-12-03T03:23:56.883Z,101821.28
2022-12-03T03:26:29.874Z,101840.13
2022-12-03T03:29:04.124Z,101849.78
2022-12-03T03:31:37.369Z,101840.13
2022-12-03T03:34:11.198Z,101829.13
2022-12-03T03:36:45.113Z,101836.63
2022-12-03T03:39:18.060Z,101841.09
2022-12-03T03:41:50.911Z,101842.06
2022-12-03T03:44:25.174Z,101793.03
2022-12-03T03:46:58.602Z,101837.78
2022-12-03T03:49:31.450Z,101838.53
2022-12-03T03:52:06.049Z,101842.13
2022-12-03T03:54:39.942Z,101778.91
2022-12-03T03:57:13.145Z,101781.75
2022-12-03T03:59:47.480Z,101827.03
2022-12-03T04:02:21.934Z,101804.69
2022-12-03T04:04:55.807Z,101806.69
2022-12-03T04:07:28.872Z,101826.50
2022-12-03T04:10:21.756Z,101779.34
2022-12-03T04:12:56.648Z,101809.84
2022-12-03T04:15:30.840Z,101739.34
2022-12-03T04:18:21.104Z,101829.88
2022-12-03T04:21:14.763Z,101822.78
2022-12-03T04:23:46.566Z,101817.91
2022-12-03T04:26:37.136Z,101825.47
2022-12-03T04:29:10.019Z,101811.56
2022-12-03T04:32:01.838Z,101804.84
2022-12-03T04:34:52.596Z,101781.22
2022-12-03T04:37:25.699Z,101792.09
2022-12-03T04:39:58.513Z,101804.41
2022-12-03T04:42:31.384Z,101808.13
2022-12-03T04:45:04.255Z,101803.03
2022-12-03T04:47:40.005Z,101808.94
2022-12-03T04:50:13.006Z,101806.63
2022-12-03T04:52:45.806Z,101812.84
2022-12-03T04:55:21.274Z,101823.19
2022-12-03T04:57:54.163Z,101817.56
2022-12-03T05:00:27.048Z,101729.97
2022-12-03T05:03:01.298Z,101792.72
2022-12-03T05:05:34.122Z,101818.75
2022-12-03T05:08:08.221Z,101778.88
2022-12-03T05:10:41.140Z,101818.47
2022-12-03T05:13:14.052Z,101757.28
2022-12-03T05:15:47.232Z,101816.66
2022-12-03T05:18:21.387Z,101815.00
2022-12-03T05:20:54.287Z,101769.38
2022-12-03T05:23:27.116Z,101785.69
2022-12-03T05:25:59.911Z,101817.53
2022-12-03T05:28:32.690Z,101783.31
2022-12-03T05:31:05.827Z,101823.06
2022-12-03T05:33:44.219Z,101815.91
2022-12-03T05:36:17.463Z,101804.84
2022-12-03T05:38:50.295Z,101816.03
2022-12-03T05:41:40.713Z,101827.31
2022-12-03T05:44:18.858Z,101813.28
2022-12-03T05:46:53.256Z,101759.16
2022-12-03T05:49:27.515Z,101805.50
2022-12-03T05:52:00.367Z,101792.06
2022-12-03T05:54:33.295Z,101774.00
2022-12-03T05:57:06.138Z,101774.25
2022-12-03T05:59:38.931Z,101770.75
2022-12-03T06:02:11.981Z,101814.91
2022-12-03T06:04:46.286Z,101794.25
2022-12-03T06:07:19.162Z,101798.31
2022-12-03T06:09:51.941Z,101783.03
2022-12-03T06:12:24.720Z,101785.31
2022-12-03T06:14:57.571Z,101781.38
2022-12-03T06:17:30.401Z,101794.81
2022-12-03T06:20:05.863Z,101778.66
2022-12-03T06:22:38.611Z,101797.44
2022-12-03T06:25:11.605Z,101796.41
2022-12-03T06:27:44.751Z,101770.53
2022-12-03T06:30:17.709Z,101791.88
2022-12-03T06:32:50.473Z,101787.72
2022-12-03T06:35:24.593Z,101773.28
2022-12-03T06:37:57.424Z,101730.22
2022-12-03T06:40:32.729Z,101774.19
2022-12-03T06:43:05.563Z,101793.84
2022-12-03T06:45:42.052Z,101806.09
2022-12-03T06:48:17.527Z,101800.06
2022-12-03T06:50:51.725Z,101801.03
2022-12-03T06:53:24.720Z,101799.97
2022-12-03T06:55:57.543Z,101774.09
2022-12-03T06:58:30.335Z,101753.56
2022-12-03T07:01:03.122Z,101799.06
2022-12-03T07:03:35.935Z,101781.81
2022-12-03T07:06:10.105Z,101791.31
2022-12-03T07:08:43.067Z,101786.16
2022-12-03T07:11:29.775Z,101793.25
2022-12-03T07:14:05.798Z,101793.19
2022-12-03T07:16:39.752Z,101780.91
2022-12-03T07:19:12.900Z,101765.59
2022-12-03T07:21:47.195Z,101798.41
2022-12-03T07:24:19.976Z,101792.28
2022-12-03T07:26:53.170Z,101762.97
2022-12-03T07:29:25.963Z,101791.41
2022-12-03T07:31:58.753Z,101793.94
2022-12-03T07:34:31.554Z,101779.34
2022-12-03T07:37:05.791Z,101782.94
2022-12-03T07:39:38.745Z,101794.09
2022-12-03T07:42:11.515Z,101800.03
2022-12-03T07:44:44.371Z,101735.81
2022-12-03T07:47:17.212Z,101767.00
2022-12-03T07:49:50.072Z,101792.72
2022-12-03T07:52:24.185Z,101800.72
2022-12-03T07:54:56.952Z,101798.13
2022-12-03T07:57:29.762Z,101771.72
2022-12-03T08:00:02.648Z,101787.84
2022-12-03T08:02:37.961Z,101743.91
2022-12-03T08:05:11.389Z,101799.84
2022-12-03T08:07:45.965Z,101754.28
2022-12-03T08:10:19.243Z,101793.91
2022-12-03T08:12:53.584Z,101780.75
2022-12-03T08:15:31.145Z,101780.91
2022-12-03T08:18:15.032Z,101758.56
2022-12-03T08:20:49.419Z,101787.88
2022-12-03T08:23:25.209Z,101785.25
2022-12-03T08:26:02.003Z,101788.22
2022-12-03T08:28:34.777Z,101790.78
2022-12-03T08:31:18.530Z,101796.16
2022-12-03T08:33:53.627Z,101752.09
2022-12-03T08:36:27.676Z,101792.41
2022-12-03T08:39:08.121Z,101797.00
2022-12-03T08:41:58.288Z,101795.38
2022-12-03T08:44:36.313Z,101793.47
2022-12-03T08:47:17.075Z,101772.78
2022-12-03T08:49:55.763Z,101776.94
2022-12-03T08:52:35.549Z,101755.38
2022-12-03T08:55:34.420Z,101756.06
2022-12-03T08:58:22.636Z,101802.97
2022-12-03T09:00:59.317Z,101798.56
2022-12-03T09:03:33.068Z,101792.19
2022-12-03T09:06:06.636Z,101762.00
2022-12-03T09:08:39.392Z,101796.59
2022-12-03T09:11:13.908Z,101769.78
2022-12-03T09:13:46.660Z,101779.09
2022-12-03T09:16:19.796Z,101794.69
2022-12-03T09:18:52.964Z,101782.63
2022-12-03T09:21:25.795Z,101793.31
2022-12-03T09:23:58.603Z,101792.97
2022-12-03T09:26:32.689Z,101792.72
2022-12-03T09:29:10.578Z,101793.97
2022-12-03T09:31:45.385Z,101795.72
2022-12-03T09:34:18.398Z,101794.16
2022-12-03T09:36:51.224Z,101792.63
2022-12-03T09:39:24.028Z,101801.41
2022-12-03T09:41:58.349Z,101797.88
2022-12-03T09:44:33.650Z,101786.84
2022-12-03T09:47:07.848Z,101753.00
2022-12-03T09:49:41.099Z,101761.84
2022-12-03T09:52:20.870Z,101760.59
2022-12-03T09:54:54.550Z,101729.75
2022-12-03T09:57:28.995Z,101721.38
2022-12-03T10:00:02.051Z,101779.41
2022-12-03T10:02:35.956Z,101736.47
2022-12-03T10:05:09.956Z,101767.91
2022-12-03T10:07:43.242Z,101779.72
2022-12-03T10:10:17.231Z,101773.56
2022-12-03T10:12:51.827Z,101760.28
2022-12-03T10:15:24.774Z,101740.91
2022-12-03T10:17:59.145Z,101758.88
2022-12-03T10:20:31.930Z,101757.66
2022-12-03T10:23:04.704Z,101740.00
2022-12-03T10:25:51.025Z,101762.38
2022-12-03T10:28:36.467Z,101759.97
2022-12-03T10:31:10.492Z,101751.91
2022-12-03T10:33:45.611Z,101729.41
2022-12-03T10:36:24.151Z,101735.22
2022-12-03T10:39:12.361Z,101749.34
2022-12-03T10:41:45.916Z,101742.25
2022-12-03T10:44:22.452Z,101738.53
2022-12-03T10:47:07.556Z,101734.13
2022-12-03T10:49:41.420Z,101726.03
2022-12-03T10:52:25.901Z,101721.69
2022-12-03T10:54:59.727Z,101695.72
2022-12-03T10:57:33.162Z,101714.47
2022-12-03T11:00:09.307Z,101710.53
2022-12-03T11:02:42.100Z,101710.25
2022-12-03T11:05:17.118Z,101703.84
2022-12-03T11:07:49.874Z,101696.75
2022-12-03T11:10:22.866Z,101629.50
2022-12-03T11:13:34.241Z,101701.63
2022-12-03T11:16:09.132Z,101684.38
2022-12-03T11:19:01.977Z,101690.50
2022-12-03T11:21:34.740Z,101692.41
2022-12-03T11:24:28.322Z,101681.97
2022-12-03T11:27:22.094Z,101683.34
2022-12-03T11:30:02.573Z,101679.97
2022-12-03T11:33:22.938Z,101684.31
2022-12-03T11:36:16.589Z,101667.78
2022-12-03T11:38:55.095Z,101660.50
2022-12-03T11:41:35.759Z,101669.06
2022-12-03T11:44:30.322Z,101667.91
2022-12-03T11:47:15.009Z,101677.41
2022-12-03T11:49:49.965Z,101619.34
2022-12-03T11:52:31.621Z,101671.94
2022-12-03T11:55:15.602Z,101671.94
2022-12-03T11:57:48.518Z,101664.66
2022-12-03T12:00:23.797Z,101659.50
2022-12-03T12:02:58.686Z,101663.88
2022-12-03T12:05:34.528Z,101646.91
2022-12-03T12:08:20.480Z,101650.47
2022-12-03T12:10:53.425Z,101649.59
2022-12-03T12:13:49.901Z,101642.50
2022-12-03T12:16:54.947Z,101643.78
2022-12-03T12:19:44.074Z,101638.75
2022-12-03T12:22:35.840Z,101631.66
2022-12-03T12:25:36.944Z,101640.41
2022-12-03T12:28:09.894Z,101590.59
2022-12-03T12:30:42.899Z,101640.03
2022-12-03T12:33:23.043Z,101624.75
2022-12-03T12:35:56.053Z,101619.72
2022-12-03T12:38:30.239Z,101602.72
2022-12-03T12:41:08.446Z,101616.81
2022-12-03T12:43:41.672Z,101607.38
2022-12-03T12:46:46.228Z,101607.56
2022-12-03T12:49:12.110Z,101542.38
2022-12-03T12:51:45.957Z,101565.03
2022-12-03T12:54:20.120Z,101595.50
2022-12-03T12:56:53.117Z,101593.09
2022-12-03T12:59:27.201Z,101588.13
2022-12-03T13:02:04.521Z,101577.91
2022-12-03T13:04:41.520Z,101592.53
2022-12-03T13:07:14.820Z,101593.22
2022-12-03T13:09:54.723Z,101565.44
2022-12-03T13:12:27.686Z,101598.50
2022-12-03T13:15:01.678Z,101575.13
2022-12-03T13:17:34.500Z,101593.91
2022-12-03T13:20:18.748Z,101591.47
2022-12-03T13:22:51.593Z,101538.94
2022-12-03T13:25:58.269Z,101592.81
2022-12-03T13:28:30.778Z,101561.41
2022-12-03T13:31:21.598Z,101548.44
2022-12-03T13:33:56.318Z,101564.75
2022-12-03T13:36:39.223Z,101554.38
2022-12-03T13:39:20.156Z,101564.16
2022-12-03T13:42:12.713Z,101575.66
2022-12-03T13:44:48.083Z,101579.72
2022-12-03T13:47:23.104Z,101571.88
2022-12-03T13:49:58.980Z,101580.25
2022-12-03T13:52:35.549Z,101580.44
2022-12-03T13:55:12.571Z,101565.63
2022-12-03T13:57:46.732Z,101569.41
2022-12-03T14:00:20.522Z,101567.22
2022-12-03T14:02:53.582Z,101541.09
2022-12-03T14:05:27.673Z,101521.44
2022-12-03T14:08:02.098Z,101473.19
2022-12-03T14:10:35.332Z,101552.78
2022-12-03T14:13:09.721Z,101545.38
2022-12-03T14:15:42.538Z,101551.06
2022-12-03T14:18:16.058Z,101527.72
2022-12-03T14:20:49.144Z,101516.75
2022-12-03T14:23:24.859Z,101561.47
2022-12-03T14:25:57.671Z,101539.63
2022-12-03T14:28:31.791Z,101561.09
2022-12-03T14:31:04.611Z,101531.56
2022-12-03T14:33:37.442Z,101535.91
2022-12-03T14:36:10.736Z,101564.28
2022-12-03T14:38:43.480Z,101553.81
2022-12-03T14:41:33.931Z,101545.13
2022-12-03T14:44:08.095Z,101562.25
2022-12-03T14:46:40.854Z,101525.13
2022-12-03T14:49:13.683Z,101565.56
2022-12-03T14:51:46.444Z,101571.16
2022-12-03T14:54:19.264Z,101570.09
2022-12-03T14:56:52.095Z,101545.25
2022-12-03T14:59:28.009Z,101556.44
2022-12-03T15:02:01.378Z,101554.00
2022-12-03T15:04:34.484Z,101546.28
2022-12-03T15:07:07.766Z,101561.66
2022-12-03T15:09:40.581Z,101537.41
2022-12-03T15:12:13.361Z,101536.69
2022-12-03T15:14:47.878Z,101549.16
2022-12-03T15:17:29.448Z,101554.63
2022-12-03T15:20:04.907Z,101553.69
2022-12-03T15:22:37.685Z,101491.91
2022-12-03T15:25:11.107Z,101550.59
2022-12-03T15:27:43.853Z,101552.47
2022-12-03T15:30:20.258Z,101554.06
2022-12-03T15:32:53.060Z,101502.13
2022-12-03T15:35:26.021Z,101547.03
2022-12-03T15:37:59.066Z,101548.06
2022-12-03T15:40:32.467Z,101547.22
2022-12-03T15:43:05.491Z,101549.06
2022-12-03T15:45:39.794Z,101551.88
2022-12-03T15:48:13.964Z,101529.47
2022-12-03T15:50:47.269Z,101543.38
2022-12-03T15:53:20.076Z,101555.41
2022-12-03T15:55:52.871Z,101560.19
2022-12-03T15:58:25.667Z,101557.00
2022-12-03T16:00:59.893Z,101557.91
2022-12-03T16:03:32.720Z,101549.97
2022-12-03T16:06:06.260Z,101544.41
2022-12-03T16:08:39.195Z,101547.53
2022-12-03T16:11:11.997Z,101535.72
2022-12-03T16:13:45.041Z,101546.91
2022-12-03T16:16:19.364Z,101545.75
2022-12-03T16:18:52.180Z,101543.59
2022-12-03T16:21:30.367Z,101540.78
2022-12-03T16:24:03.228Z,101541.09
2022-12-03T16:26:36.066Z,101528.00
2022-12-03T16:29:09.099Z,101542.22
2022-12-03T16:31:43.356Z,101550.81
2022-12-03T16:34:16.195Z,101549.22
2022-12-03T16:36:49.123Z,101553.31
2022-12-03T16:39:22.055Z,101544.81
2022-12-03T16:41:55.090Z,101550.72
2022-12-03T16:44:53.782Z,101549.25
2022-12-03T16:47:33.400Z,101550.22
2022-12-03T16:50:14.141Z,101544.00
2022-12-03T16:52:50.913Z,101549.25
2022-12-03T16:55:23.681Z,101541.97
2022-12-03T16:57:56.538Z,101542.19
2022-12-03T17:00:29.786Z,101535.00
2022-12-03T17:03:04.135Z,101543.59
2022-12-03T17:05:37.066Z,101546.78
2022-12-03T17:08:10.012Z,101530.16
2022-12-03T17:10:44.544Z,101546.63
2022-12-03T17:13:17.495Z,101537.13
2022-12-03T17:15:50.559Z,101550.81
2022-12-03T17:18:25.244Z,101545.63
2022-12-03T17:20:58.076Z,101546.91
2022-12-03T17:23:31.888Z,101540.84
2022-12-03T17:26:04.849Z,101539.75
2022-12-03T17:28:37.765Z,101537.00
2022-12-03T17:31:11.711Z,101531.97
2022-12-03T17:33:46.263Z,101516.19
2022-12-03T17:36:19.190Z,101523.16
2022-12-03T17:38:52.289Z,101525.94
2022-12-03T17:41:26.155Z,101519.13
2022-12-03T17:43:58.947Z,101520.00
2022-12-03T17:46:32.006Z,101511.50
2022-12-03T17:49:06.538Z,101510.63
2022-12-03T17:51:39.703Z,101527.81
2022-12-03T17:54:12.709Z,101520.63
2022-12-03T17:56:46.241Z,101527.72
2022-12-03T17:59:19.004Z,101525.94
2022-12-03T18:01:51.953Z,101520.63
2022-12-03T18:04:26.258Z,101506.91
2022-12-03T18:07:02.390Z,101518.91
2022-12-03T18:09:35.852Z,101518.28
2022-12-03T18:12:08.853Z,101501.66
2022-12-03T18:14:41.703Z,101514.44
2022-12-03T18:17:14.839Z,101507.47
2022-12-03T18:19:48.971Z,101508.25
2022-12-03T18:22:21.879Z,101498.78
2022-12-03T18:24:55.780Z,101511.22
2022-12-03T18:27:28.617Z,101505.00
2022-12-03T18:30:01.817Z,101505.19
2022-12-03T18:32:34.600Z,101510.25
2022-12-03T18:35:10.021Z,101498.09
2022-12-03T18:37:42.907Z,101511.00
2022-12-03T18:40:19.947Z,101511.41
2022-12-03T18:42:52.973Z,101512.28
2022-12-03T18:45:25.782Z,101507.06
2022-12-03T18:47:58.660Z,101503.59
2022-12-03T18:50:33.103Z,101506.84
2022-12-03T18:53:05.949Z,101496.41
2022-12-03T18:55:39.394Z,101495.03
2022-12-03T18:58:12.404Z,101492.78
2022-12-03T19:00:45.266Z,101479.94
2022-12-03T19:03:18.415Z,101495.72
2022-12-03T19:05:52.943Z,101489.53
2022-12-03T19:08:26.074Z,101492.34
2022-12-03T19:11:00.503Z,101488.97
2022-12-03T19:13:33.367Z,101480.25
2022-12-03T19:16:08.564Z,101489.91
2022-12-03T19:18:41.559Z,101486.22
2022-12-03T19:21:17.516Z,101500.22
2022-12-03T19:24:16.409Z,101495.94
2022-12-03T19:26:43.548Z,101499.38
2022-12-03T19:29:16.418Z,101501.19
2022-12-03T19:31:50.498Z,101491.50
2022-12-03T19:34:24.218Z,101500.00
2022-12-03T19:36:58.390Z,101499.94
2022-12-03T19:39:31.734Z,101496.13
2022-12-03T19:42:04.803Z,101495.16
2022-12-03T19:44:37.754Z,101506.66
2022-12-03T19:47:10.672Z,101496.25
2022-12-03T19:49:43.465Z,101490.97
2022-12-03T19:52:17.650Z,101496.88
2022-12-03T19:54:50.640Z,101488.47
2022-12-03T19:57:23.807Z,101500.53
2022-12-03T19:59:57.167Z,101505.03
2022-12-03T20:02:30.396Z,101511.16
2022-12-03T20:05:03.417Z,101486.00
2022-12-03T20:07:37.737Z,101503.41
2022-12-03T20:10:11.251Z,101490.97
2022-12-03T20:12:44.504Z,101496.31
2022-12-03T20:15:17.512Z,101499.00
2022-12-03T20:17:50.458Z,101494.13
2022-12-03T20:20:23.628Z,101502.13
2022-12-03T20:22:58.142Z,101503.66
2022-12-03T20:25:31.011Z,101506.34
2022-12-03T20:28:03.846Z,101497.56
2022-12-03T20:30:36.764Z,101498.88
2022-12-03T20:33:09.703Z,101498.81
2022-12-03T20:35:42.570Z,101494.53
2022-12-03T20:38:16.748Z,101492.50
2022-12-03T20:40:50.159Z,101477.22
2022-12-03T20:43:23.091Z,101494.53
2022-12-03T20:46:02.408Z,101495.50
2022-12-03T20:48:36.097Z,101485.81
2022-12-03T20:51:10.846Z,101488.13
2022-12-03T20:53:46.230Z,101480.25
2022-12-03T20:56:21.520Z,101480.16
2022-12-03T20:58:55.096Z,101490.13
2022-12-03T21:01:29.246Z,101477.63
2022-12-03T21:04:02.944Z,101477.00
2022-12-03T21:06:37.816Z,101476.38
2022-12-03T21:09:13.164Z,101455.19
2022-12-03T21:11:46.461Z,101475.97
2022-12-03T21:14:19.259Z,101473.28
2022-12-03T21:17:07.971Z,101473.53
2022-12-03T21:19:41.825Z,101458.03
2022-12-03T21:22:14.631Z,101470.88
2022-12-03T21:24:49.151Z,101472.53
2022-12-03T21:27:22.118Z,101457.97
2022-12-03T21:29:55.206Z,101468.19
2022-12-03T21:32:28.293Z,101463.06
2022-12-03T21:35:01.144Z,101452.34
2022-12-03T21:37:34.265Z,101447.69
2022-12-03T21:40:09.552Z,101454.31
2022-12-03T21:42:42.528Z,101460.44
2022-12-03T21:45:16.415Z,101461.16
2022-12-03T21:47:49.356Z,101460.19
2022-12-03T21:50:22.278Z,101447.50
2022-12-03T21:52:55.656Z,101470.03
2022-12-03T21:55:29.904Z,101463.06
2022-12-03T21:58:02.751Z,101468.38
2022-12-03T22:00:35.703Z,101462.97
2022-12-03T22:03:08.610Z,101463.91
2022-12-03T22:05:41.462Z,101467.41
2022-12-03T22:08:14.435Z,101463.91
2022-12-03T22:10:48.713Z,101456.09
2022-12-03T22:13:21.664Z,101465.81
2022-12-03T22:15:54.562Z,101458.59
2022-12-03T22:18:27.481Z,101462.03
2022-12-03T22:21:04.240Z,101461.03
2022-12-03T22:23:37.331Z,101457.50
2022-12-03T22:26:13.743Z,101452.66
2022-12-03T22:28:49.530Z,101453.22
2022-12-03T22:31:22.550Z,101453.34
2022-12-03T22:33:55.399Z,101449.41
2022-12-03T22:36:28.197Z,101432.13
2022-12-03T22:39:01.079Z,101462.88
2022-12-03T22:41:35.308Z,101453.50
2022-12-03T22:44:08.283Z,101452.84
2022-12-03T22:46:41.242Z,101443.31
2022-12-03T22:49:14.707Z,101447.28
2022-12-03T22:51:48.499Z,101443.06
2022-12-03T22:54:24.115Z,101440.44
2022-12-03T22:56:58.575Z,101436.88
2022-12-03T22:59:31.679Z,101433.47
2022-12-03T23:02:04.818Z,101419.59
2022-12-03T23:04:37.693Z,101430.28
2022-12-03T23:07:10.714Z,101424.22
2022-12-03T23:09:43.533Z,101433.34
2022-12-03T23:12:18.007Z,101429.81
2022-12-03T23:14:54.071Z,101428.28
2022-12-03T23:17:26.883Z,101414.53
2022-12-03T23:19:59.679Z,101429.88
2022-12-03T23:22:32.596Z,101416.16
2022-12-03T23:25:07.258Z,101428.94
2022-12-03T23:27:41.563Z,101431.53
2022-12-03T23:30:16.583Z,101421.13
2022-12-03T23:32:49.415Z,101422.84
2022-12-03T23:35:22.275Z,101419.41
2022-12-03T23:37:55.078Z,101423.59
2022-12-03T23:40:27.939Z,101423.03
2022-12-03T23:43:02.392Z,101412.50
2022-12-03T23:45:35.784Z,101412.50
2022-12-03T23:48:08.606Z,101404.81
2022-12-03T23:50:42.196Z,101407.97
2022-12-03T23:53:15.117Z,101403.41
2022-12-03T23:55:47.996Z,101400.78
2022-12-03T23:58:22.528Z,101398.94
